Kezdőlap
METAR-TAF:

METAR-TAF

Repülőterek :

Strother Field

Winfield-Arkansas City, Kansas, Amerikai Egyesült Államok

földrajzi szélesség: 37-10-05N, földrajzi hosszúság: 097-02-13W, magasság: 353 m

Jelenlegi meteorológiai megfigyelések

A jelentés 1 órával és 12 perccel ezelõtt készült, 17:54 UTC
Dél-délkeleti szél 14 kt
Hőmérséklet 36°C
Páratartalom 45%
Légköri nyomás 1016 hPa
Látótávolság: 16.1 km
Derült ég

METAR: KWLD 121754Z AUTO 16014KT 10SM CLR 36/22 A3000 RMK AO2 SLP143 T03560222 10356 20239 58007

Idő: 14:06 (19:06 UTC)


TAF: hiányzik

Meteorológiai megfigyelések és előrejelzések több, mint 4000 repülőtéren (METAR és TAF jelentéseket).

A térképen piros és sárga pontok jelzik az elérhető meteorológiai állomásokat.

Mozgassa az egeret a pont fölött, hogy megjelenjen az állomás neve.

Azután kattintson az időjárási megfigyelések és előrejelzések megtekintéséhez.

A térkép megváltoztatása: kattintson a fekete keresztel jelölt zöld gombra ráközelítéshez, a vonallal jelölt zöld gombra távolításhoz, vagy a zöld nyilakra a szomszédos térképek eléréséhez.


METAR-TAF: